sensor_id;sensor_type;location;lat;lon;timestamp;pressure;altitude;pressure_sealevel;temperature;humidity
75208;BME280;63795;55.684;37.864;2023-08-31T00:01:37;99810.03;;;13.90;77.11
75208;BME280;63795;55.684;37.864;2023-08-31T00:06:38;99815.84;;;13.83;77.42
75208;BME280;63795;55.684;37.864;2023-08-31T00:11:38;99808.97;;;13.80;77.51
75208;BME280;63795;55.684;37.864;2023-08-31T00:16:39;99801.69;;;13.76;78.57
75208;BME280;63795;55.684;37.864;2023-08-31T00:21:40;99798.91;;;13.72;78.71
75208;BME280;63795;55.684;37.864;2023-08-31T00:26:40;99808.25;;;13.73;78.64
75208;BME280;63795;55.684;37.864;2023-08-31T00:31:42;99805.56;;;13.62;78.94
75208;BME280;63795;55.684;37.864;2023-08-31T00:36:45;99804.75;;;13.61;78.98
75208;BME280;63795;55.684;37.864;2023-08-31T00:41:45;99812.00;;;13.66;78.75
75208;BME280;63795;55.684;37.864;2023-08-31T00:46:46;99811.25;;;13.62;78.61
75208;BME280;63795;55.684;37.864;2023-08-31T00:51:46;99822.59;;;13.65;79.06
75208;BME280;63795;55.684;37.864;2023-08-31T00:56:54;99830.31;;;13.69;78.36
75208;BME280;63795;55.684;37.864;2023-08-31T01:02:11;99827.41;;;13.72;78.78
75208;BME280;63795;55.684;37.864;2023-08-31T01:12:39;99828.22;;;13.69;78.69
75208;BME280;63795;55.684;37.864;2023-08-31T01:17:53;99816.56;;;13.60;79.99
75208;BME280;63795;55.684;37.864;2023-08-31T01:23:02;99818.63;;;13.59;79.80
75208;BME280;63795;55.684;37.864;2023-08-31T01:28:07;99821.13;;;13.54;80.43
75208;BME280;63795;55.684;37.864;2023-08-31T01:33:08;99825.25;;;13.49;80.69
75208;BME280;63795;55.684;37.864;2023-08-31T01:38:10;99805.06;;;13.40;80.81
75208;BME280;63795;55.684;37.864;2023-08-31T01:43:12;99822.91;;;13.44;80.83
75208;BME280;63795;55.684;37.864;2023-08-31T01:48:14;99812.34;;;13.41;80.89
75208;BME280;63795;55.684;37.864;2023-08-31T01:53:15;99809.19;;;13.36;80.96
75208;BME280;63795;55.684;37.864;2023-08-31T01:58:15;99817.78;;;13.29;81.21
75208;BME280;63795;55.684;37.864;2023-08-31T02:03:16;99822.28;;;13.30;81.33
75208;BME280;63795;55.684;37.864;2023-08-31T02:08:16;99827.97;;;13.30;80.75
75208;BME280;63795;55.684;37.864;2023-08-31T02:13:18;99824.75;;;13.28;80.68
75208;BME280;63795;55.684;37.864;2023-08-31T02:18:18;99827.59;;;13.28;81.15
75208;BME280;63795;55.684;37.864;2023-08-31T02:23:19;99815.38;;;13.27;80.32
75208;BME280;63795;55.684;37.864;2023-08-31T02:28:19;99815.06;;;13.22;81.33
75208;BME280;63795;55.684;37.864;2023-08-31T02:33:20;99814.25;;;13.21;81.35
75208;BME280;63795;55.684;37.864;2023-08-31T02:38:20;99807.03;;;13.13;81.30
75208;BME280;63795;55.684;37.864;2023-08-31T02:43:21;99811.91;;;13.13;81.29
75208;BME280;63795;55.684;37.864;2023-08-31T02:48:21;99835.44;;;13.17;80.77
75208;BME280;63795;55.684;37.864;2023-08-31T02:53:22;99816.06;;;13.05;80.45
75208;BME280;63795;55.684;37.864;2023-08-31T02:58:22;99820.00;;;13.18;79.76
75208;BME280;63795;55.684;37.864;2023-08-31T03:03:23;99812.28;;;13.15;81.40
75208;BME280;63795;55.684;37.864;2023-08-31T03:08:23;99803.47;;;13.06;81.49
75208;BME280;63795;55.684;37.864;2023-08-31T03:13:23;99817.19;;;13.14;81.45
75208;BME280;63795;55.684;37.864;2023-08-31T03:18:24;99811.13;;;13.09;81.98
75208;BME280;63795;55.684;37.864;2023-08-31T03:23:25;99798.56;;;13.03;82.22
75208;BME280;63795;55.684;37.864;2023-08-31T03:28:25;99798.19;;;13.04;82.30
75208;BME280;63795;55.684;37.864;2023-08-31T03:33:26;99810.69;;;13.14;82.21
75208;BME280;63795;55.684;37.864;2023-08-31T03:38:28;99806.22;;;13.13;81.95
75208;BME280;63795;55.684;37.864;2023-08-31T03:43:29;99819.50;;;13.23;81.58
75208;BME280;63795;55.684;37.864;2023-08-31T03:48:30;99814.19;;;13.25;81.46
75208;BME280;63795;55.684;37.864;2023-08-31T03:53:30;99825.56;;;13.28;81.69
75208;BME280;63795;55.684;37.864;2023-08-31T03:58:31;99820.66;;;13.29;81.88
75208;BME280;63795;55.684;37.864;2023-08-31T04:03:31;99824.59;;;13.38;81.71
75208;BME280;63795;55.684;37.864;2023-08-31T04:08:32;99815.56;;;13.43;81.32
75208;BME280;63795;55.684;37.864;2023-08-31T04:13:33;99817.47;;;13.53;81.47
75208;BME280;63795;55.684;37.864;2023-08-31T04:18:33;99816.97;;;13.62;81.10
75208;BME280;63795;55.684;37.864;2023-08-31T04:23:34;99829.00;;;13.73;80.98
75208;BME280;63795;55.684;37.864;2023-08-31T04:28:34;99834.09;;;13.85;80.40
75208;BME280;63795;55.684;37.864;2023-08-31T04:33:36;99857.13;;;13.98;80.18
75208;BME280;63795;55.684;37.864;2023-08-31T04:38:37;99849.56;;;14.14;79.77
75208;BME280;63795;55.684;37.864;2023-08-31T04:43:38;99846.19;;;14.19;79.58
75208;BME280;63795;55.684;37.864;2023-08-31T04:48:39;99854.13;;;14.35;79.44
75208;BME280;63795;55.684;37.864;2023-08-31T04:53:39;99855.44;;;14.54;78.84
75208;BME280;63795;55.684;37.864;2023-08-31T04:58:40;99860.03;;;14.71;78.01
75208;BME280;63795;55.684;37.864;2023-08-31T05:03:40;99845.94;;;14.83;77.48
75208;BME280;63795;55.684;37.864;2023-08-31T05:08:41;99850.63;;;14.93;77.40
75208;BME280;63795;55.684;37.864;2023-08-31T05:13:41;99858.50;;;15.09;76.81
75208;BME280;63795;55.684;37.864;2023-08-31T05:18:42;99856.25;;;15.20;76.36
75208;BME280;63795;55.684;37.864;2023-08-31T05:23:42;99847.53;;;15.27;76.26
75208;BME280;63795;55.684;37.864;2023-08-31T05:28:43;99851.75;;;15.42;76.33
75208;BME280;63795;55.684;37.864;2023-08-31T05:33:43;99835.47;;;15.39;75.99
75208;BME280;63795;55.684;37.864;2023-08-31T05:38:44;99841.53;;;15.41;75.98
75208;BME280;63795;55.684;37.864;2023-08-31T05:43:44;99844.72;;;15.47;76.08
75208;BME280;63795;55.684;37.864;2023-08-31T05:48:45;99852.75;;;15.52;75.92
75208;BME280;63795;55.684;37.864;2023-08-31T05:53:46;99865.78;;;15.72;75.54
75208;BME280;63795;55.684;37.864;2023-08-31T05:58:46;99866.38;;;15.99;75.44
75208;BME280;63795;55.684;37.864;2023-08-31T06:03:48;99860.91;;;16.41;74.09
75208;BME280;63795;55.684;37.864;2023-08-31T06:08:49;99875.41;;;16.98;73.19
75208;BME280;63795;55.684;37.864;2023-08-31T06:13:49;99875.94;;;17.66;69.65
75208;BME280;63795;55.684;37.864;2023-08-31T06:18:50;99883.63;;;18.23;69.04
75208;BME280;63795;55.684;37.864;2023-08-31T06:23:51;99893.28;;;18.67;67.15
75208;BME280;63795;55.684;37.864;2023-08-31T06:28:52;99906.06;;;19.13;66.28
75208;BME280;63795;55.684;37.864;2023-08-31T06:33:52;99913.56;;;19.44;64.15
75208;BME280;63795;55.684;37.864;2023-08-31T06:38:53;99926.50;;;19.83;64.93
75208;BME280;63795;55.684;37.864;2023-08-31T06:43:53;99927.25;;;20.18;62.54
75208;BME280;63795;55.684;37.864;2023-08-31T06:48:54;99928.03;;;20.40;62.31
75208;BME280;63795;55.684;37.864;2023-08-31T06:53:54;99923.38;;;20.43;60.90
75208;BME280;63795;55.684;37.864;2023-08-31T06:58:55;99919.28;;;20.53;59.25
75208;BME280;63795;55.684;37.864;2023-08-31T07:03:55;99915.06;;;20.84;59.20
75208;BME280;63795;55.684;37.864;2023-08-31T07:08:56;99925.41;;;21.12;58.87
75208;BME280;63795;55.684;37.864;2023-08-31T07:13:56;99926.72;;;21.21;57.22
75208;BME280;63795;55.684;37.864;2023-08-31T07:18:57;99927.06;;;21.41;56.62
75208;BME280;63795;55.684;37.864;2023-08-31T07:23:58;99910.41;;;21.63;56.08
75208;BME280;63795;55.684;37.864;2023-08-31T07:28:59;99923.22;;;21.53;55.71
75208;BME280;63795;55.684;37.864;2023-08-31T07:33:59;99913.88;;;21.12;56.90
75208;BME280;63795;55.684;37.864;2023-08-31T07:39:00;99912.41;;;20.99;58.04
75208;BME280;63795;55.684;37.864;2023-08-31T07:44:01;99908.69;;;20.89;58.00
75208;BME280;63795;55.684;37.864;2023-08-31T07:49:03;99920.50;;;20.82;58.05
75208;BME280;63795;55.684;37.864;2023-08-31T07:54:04;99919.50;;;20.67;58.37
75208;BME280;63795;55.684;37.864;2023-08-31T07:59:04;99916.06;;;20.51;58.67
75208;BME280;63795;55.684;37.864;2023-08-31T08:04:05;99921.69;;;20.54;58.97
75208;BME280;63795;55.684;37.864;2023-08-31T08:09:05;99918.19;;;20.59;58.76
75208;BME280;63795;55.684;37.864;2023-08-31T08:14:06;99906.66;;;20.59;58.85
75208;BME280;63795;55.684;37.864;2023-08-31T08:19:06;99905.09;;;20.67;58.77
75208;BME280;63795;55.684;37.864;2023-08-31T08:24:07;99904.50;;;20.81;58.38
75208;BME280;63795;55.684;37.864;2023-08-31T08:29:08;99898.25;;;20.83;58.15
75208;BME280;63795;55.684;37.864;2023-08-31T08:34:08;99887.38;;;20.87;58.03
75208;BME280;63795;55.684;37.864;2023-08-31T08:39:09;99883.88;;;20.92;57.23
75208;BME280;63795;55.684;37.864;2023-08-31T08:44:09;99894.28;;;20.98;57.30
75208;BME280;63795;55.684;37.864;2023-08-31T08:49:10;99886.38;;;21.48;55.48
75208;BME280;63795;55.684;37.864;2023-08-31T08:54:12;99892.09;;;22.20;53.47
75208;BME280;63795;55.684;37.864;2023-08-31T08:59:13;99892.06;;;23.27;54.80
75208;BME280;63795;55.684;37.864;2023-08-31T09:04:14;99894.78;;;24.22;49.68
75208;BME280;63795;55.684;37.864;2023-08-31T09:09:15;99890.00;;;24.19;48.54
75208;BME280;63795;55.684;37.864;2023-08-31T09:14:18;99886.63;;;24.20;48.26
75208;BME280;63795;55.684;37.864;2023-08-31T09:19:23;99891.41;;;24.38;47.20
75208;BME280;63795;55.684;37.864;2023-08-31T09:24:24;99900.56;;;24.66;47.46
75208;BME280;63795;55.684;37.864;2023-08-31T09:29:25;99914.81;;;25.33;46.20
75208;BME280;63795;55.684;37.864;2023-08-31T09:34:33;99911.22;;;26.30;47.54
75208;BME280;63795;55.684;37.864;2023-08-31T09:39:39;99900.19;;;26.96;42.31
75208;BME280;63795;55.684;37.864;2023-08-31T09:44:42;99905.19;;;26.07;42.36
75208;BME280;63795;55.684;37.864;2023-08-31T09:49:43;99908.75;;;26.74;41.58
75208;BME280;63795;55.684;37.864;2023-08-31T09:54:44;99905.13;;;26.84;41.80
75208;BME280;63795;55.684;37.864;2023-08-31T09:59:46;99906.97;;;27.24;40.57
75208;BME280;63795;55.684;37.864;2023-08-31T10:04:48;99908.53;;;27.20;38.77
75208;BME280;63795;55.684;37.864;2023-08-31T10:09:52;99903.63;;;26.94;38.91
75208;BME280;63795;55.684;37.864;2023-08-31T10:14:53;99894.19;;;26.74;39.46
75208;BME280;63795;55.684;37.864;2023-08-31T10:19:55;99896.84;;;27.14;38.68
75208;BME280;63795;55.684;37.864;2023-08-31T10:24:56;99906.47;;;27.79;40.23
75208;BME280;63795;55.684;37.864;2023-08-31T10:30:33;99905.28;;;28.13;37.51
75208;BME280;63795;55.684;37.864;2023-08-31T10:35:52;99907.97;;;28.33;36.10
75208;BME280;63795;55.684;37.864;2023-08-31T10:41:20;99908.66;;;27.90;35.95
75208;BME280;63795;55.684;37.864;2023-08-31T10:46:25;99895.25;;;28.31;35.64
75208;BME280;63795;55.684;37.864;2023-08-31T10:51:32;99887.53;;;28.06;36.01
75208;BME280;63795;55.684;37.864;2023-08-31T10:56:32;99888.38;;;28.56;36.92
75208;BME280;63795;55.684;37.864;2023-08-31T11:07:17;99885.16;;;28.26;35.33
75208;BME280;63795;55.684;37.864;2023-08-31T11:12:21;99881.19;;;28.46;35.92
75208;BME280;63795;55.684;37.864;2023-08-31T11:17:23;99890.72;;;28.08;36.59
75208;BME280;63795;55.684;37.864;2023-08-31T11:22:24;99873.50;;;29.04;35.88
75208;BME280;63795;55.684;37.864;2023-08-31T11:27:25;99875.13;;;28.72;35.01
75208;BME280;63795;55.684;37.864;2023-08-31T11:32:25;99870.59;;;28.37;36.17
75208;BME280;63795;55.684;37.864;2023-08-31T11:37:26;99866.88;;;28.37;35.54
75208;BME280;63795;55.684;37.864;2023-08-31T11:42:27;99855.72;;;28.19;36.78
75208;BME280;63795;55.684;37.864;2023-08-31T11:47:27;99856.56;;;28.69;37.12
75208;BME280;63795;55.684;37.864;2023-08-31T11:52:28;99854.84;;;29.40;34.57
75208;BME280;63795;55.684;37.864;2023-08-31T11:57:30;99846.69;;;29.05;36.63
75208;BME280;63795;55.684;37.864;2023-08-31T12:02:35;99836.88;;;28.97;35.37
75208;BME280;63795;55.684;37.864;2023-08-31T12:07:40;99829.47;;;28.46;35.74
75208;BME280;63795;55.684;37.864;2023-08-31T12:12:43;99819.94;;;28.24;36.31
75208;BME280;63795;55.684;37.864;2023-08-31T12:17:44;99820.72;;;28.19;36.95
75208;BME280;63795;55.684;37.864;2023-08-31T12:22:55;99809.31;;;28.76;37.21
75208;BME280;63795;55.684;37.864;2023-08-31T12:27:55;99817.25;;;29.61;35.46
75208;BME280;63795;55.684;37.864;2023-08-31T12:32:56;99822.28;;;28.97;35.18
75208;BME280;63795;55.684;37.864;2023-08-31T12:37:56;99821.72;;;29.04;35.65
75208;BME280;63795;55.684;37.864;2023-08-31T12:42:57;99834.38;;;29.40;35.42
75208;BME280;63795;55.684;37.864;2023-08-31T12:48:01;99822.53;;;28.99;36.19
75208;BME280;63795;55.684;37.864;2023-08-31T12:53:01;99804.38;;;29.39;35.39
75208;BME280;63795;55.684;37.864;2023-08-31T12:58:02;99805.34;;;28.68;35.91
75208;BME280;63795;55.684;37.864;2023-08-31T13:03:02;99804.81;;;28.53;36.55
75208;BME280;63795;55.684;37.864;2023-08-31T13:08:03;99808.00;;;28.11;36.64
75208;BME280;63795;55.684;37.864;2023-08-31T13:13:05;99794.69;;;27.82;36.94
75208;BME280;63795;55.684;37.864;2023-08-31T13:18:05;99789.13;;;27.73;37.54
75208;BME280;63795;55.684;37.864;2023-08-31T13:23:06;99795.47;;;27.07;38.49
75208;BME280;63795;55.684;37.864;2023-08-31T13:28:07;99794.66;;;26.59;39.07
75208;BME280;63795;55.684;37.864;2023-08-31T13:33:08;99788.56;;;26.26;40.02
75208;BME280;63795;55.684;37.864;2023-08-31T13:38:09;99794.41;;;26.00;40.62
75208;BME280;63795;55.684;37.864;2023-08-31T13:43:09;99786.31;;;25.84;40.91
75208;BME280;63795;55.684;37.864;2023-08-31T13:48:10;99776.31;;;25.85;41.39
75208;BME280;63795;55.684;37.864;2023-08-31T13:53:10;99784.31;;;25.95;41.09
75208;BME280;63795;55.684;37.864;2023-08-31T13:58:11;99783.00;;;25.65;41.23
75208;BME280;63795;55.684;37.864;2023-08-31T14:03:12;99782.50;;;25.47;41.62
75208;BME280;63795;55.684;37.864;2023-08-31T14:08:12;99757.03;;;25.36;42.28
75208;BME280;63795;55.684;37.864;2023-08-31T14:13:13;99764.88;;;25.30;42.41
75208;BME280;63795;55.684;37.864;2023-08-31T14:18:14;99767.47;;;25.28;42.56
75208;BME280;63795;55.684;37.864;2023-08-31T14:23:14;99771.56;;;25.16;42.77
75208;BME280;63795;55.684;37.864;2023-08-31T14:28:16;99754.03;;;25.05;43.07
75208;BME280;63795;55.684;37.864;2023-08-31T14:33:16;99756.84;;;24.99;43.60
75208;BME280;63795;55.684;37.864;2023-08-31T14:38:20;99751.72;;;24.89;43.63
75208;BME280;63795;55.684;37.864;2023-08-31T14:43:21;99754.75;;;24.80;44.25
75208;BME280;63795;55.684;37.864;2023-08-31T14:48:21;99743.59;;;24.73;44.20
75208;BME280;63795;55.684;37.864;2023-08-31T14:53:21;99749.69;;;24.75;44.39
75208;BME280;63795;55.684;37.864;2023-08-31T14:58:25;99767.16;;;24.66;44.48
75208;BME280;63795;55.684;37.864;2023-08-31T15:03:25;99763.38;;;24.60;44.61
75208;BME280;63795;55.684;37.864;2023-08-31T15:08:38;99754.31;;;24.52;45.09
75208;BME280;63795;55.684;37.864;2023-08-31T15:13:39;99763.25;;;24.48;45.28
75208;BME280;63795;55.684;37.864;2023-08-31T15:18:42;99747.50;;;24.35;45.44
75208;BME280;63795;55.684;37.864;2023-08-31T15:23:45;99757.41;;;24.28;45.71
75208;BME280;63795;55.684;37.864;2023-08-31T15:28:46;99763.91;;;24.23;45.97
75208;BME280;63795;55.684;37.864;2023-08-31T15:33:48;99757.72;;;24.16;46.53
75208;BME280;63795;55.684;37.864;2023-08-31T15:38:48;99754.75;;;24.10;46.80
75208;BME280;63795;55.684;37.864;2023-08-31T15:43:49;99762.84;;;24.06;46.92
75208;BME280;63795;55.684;37.864;2023-08-31T15:48:50;99762.72;;;24.01;47.04
75208;BME280;63795;55.684;37.864;2023-08-31T15:53:54;99754.56;;;23.85;47.24
75208;BME280;63795;55.684;37.864;2023-08-31T15:58:54;99752.34;;;23.80;47.85
75208;BME280;63795;55.684;37.864;2023-08-31T16:03:55;99752.16;;;23.69;47.81
75208;BME280;63795;55.684;37.864;2023-08-31T16:08:55;99762.84;;;23.62;48.28
75208;BME280;63795;55.684;37.864;2023-08-31T16:13:56;99752.97;;;23.54;48.51
75208;BME280;63795;55.684;37.864;2023-08-31T16:18:56;99750.13;;;23.45;49.10
75208;BME280;63795;55.684;37.864;2023-08-31T16:23:57;99752.63;;;23.38;49.52
75208;BME280;63795;55.684;37.864;2023-08-31T16:28:57;99743.69;;;23.27;49.49
75208;BME280;63795;55.684;37.864;2023-08-31T16:33:58;99753.06;;;23.22;49.60
75208;BME280;63795;55.684;37.864;2023-08-31T16:38:59;99757.03;;;23.10;50.17
75208;BME280;63795;55.684;37.864;2023-08-31T16:44:00;99741.56;;;22.98;50.07
75208;BME280;63795;55.684;37.864;2023-08-31T16:49:00;99752.09;;;22.87;50.95
75208;BME280;63795;55.684;37.864;2023-08-31T16:54:02;99747.69;;;22.76;51.11
75208;BME280;63795;55.684;37.864;2023-08-31T16:59:03;99750.75;;;22.73;50.64
75208;BME280;63795;55.684;37.864;2023-08-31T17:04:07;99758.47;;;22.67;50.99
75208;BME280;63795;55.684;37.864;2023-08-31T17:09:07;99743.97;;;22.52;51.20
75208;BME280;63795;55.684;37.864;2023-08-31T17:14:08;99748.00;;;22.46;51.57
75208;BME280;63795;55.684;37.864;2023-08-31T17:19:10;99750.78;;;22.40;51.22
75208;BME280;63795;55.684;37.864;2023-08-31T17:24:11;99750.31;;;22.33;52.20
75208;BME280;63795;55.684;37.864;2023-08-31T17:29:11;99751.50;;;22.26;52.27
75208;BME280;63795;55.684;37.864;2023-08-31T17:34:29;99757.94;;;22.21;52.48
75208;BME280;63795;55.684;37.864;2023-08-31T17:39:32;99752.84;;;22.07;53.03
75208;BME280;63795;55.684;37.864;2023-08-31T17:44:33;99746.06;;;21.77;53.53
75208;BME280;63795;55.684;37.864;2023-08-31T17:49:33;99753.28;;;21.73;53.51
75208;BME280;63795;55.684;37.864;2023-08-31T17:54:37;99750.94;;;21.62;54.06
75208;BME280;63795;55.684;37.864;2023-08-31T17:59:37;99741.78;;;21.55;54.34
75208;BME280;63795;55.684;37.864;2023-08-31T18:04:38;99754.00;;;21.41;54.90
75208;BME280;63795;55.684;37.864;2023-08-31T18:09:38;99756.91;;;21.32;55.37
75208;BME280;63795;55.684;37.864;2023-08-31T18:14:39;99764.78;;;21.22;55.66
75208;BME280;63795;55.684;37.864;2023-08-31T18:19:41;99763.63;;;21.10;56.08
75208;BME280;63795;55.684;37.864;2023-08-31T18:24:41;99768.13;;;21.02;56.41
75208;BME280;63795;55.684;37.864;2023-08-31T18:29:42;99767.34;;;21.02;56.39
75208;BME280;63795;55.684;37.864;2023-08-31T18:34:43;99772.59;;;21.12;56.22
75208;BME280;63795;55.684;37.864;2023-08-31T18:39:45;99769.06;;;20.99;56.60
75208;BME280;63795;55.684;37.864;2023-08-31T18:44:46;99773.84;;;20.84;57.39
75208;BME280;63795;55.684;37.864;2023-08-31T18:49:48;99775.94;;;20.75;57.38
75208;BME280;63795;55.684;37.864;2023-08-31T18:54:50;99754.63;;;20.63;58.14
75208;BME280;63795;55.684;37.864;2023-08-31T18:59:50;99764.38;;;20.57;58.47
75208;BME280;63795;55.684;37.864;2023-08-31T19:04:50;99769.66;;;20.49;58.86
75208;BME280;63795;55.684;37.864;2023-08-31T19:09:54;99763.56;;;20.47;58.88
75208;BME280;63795;55.684;37.864;2023-08-31T19:14:55;99776.50;;;20.43;59.27
75208;BME280;63795;55.684;37.864;2023-08-31T19:19:55;99762.91;;;20.34;59.34
75208;BME280;63795;55.684;37.864;2023-08-31T19:24:56;99780.97;;;20.34;59.34
75208;BME280;63795;55.684;37.864;2023-08-31T19:29:56;99774.84;;;20.23;59.83
75208;BME280;63795;55.684;37.864;2023-08-31T19:34:57;99777.53;;;20.18;59.87
75208;BME280;63795;55.684;37.864;2023-08-31T19:39:57;99773.03;;;20.08;60.34
75208;BME280;63795;55.684;37.864;2023-08-31T19:44:58;99777.63;;;20.05;60.27
75208;BME280;63795;55.684;37.864;2023-08-31T19:49:58;99786.22;;;19.96;61.11
75208;BME280;63795;55.684;37.864;2023-08-31T19:54:59;99794.66;;;19.91;60.72
75208;BME280;63795;55.684;37.864;2023-08-31T19:59:59;99797.84;;;19.84;61.62
75208;BME280;63795;55.684;37.864;2023-08-31T20:05:00;99791.69;;;19.73;61.83
75208;BME280;63795;55.684;37.864;2023-08-31T20:10:00;99796.13;;;19.65;61.92
75208;BME280;63795;55.684;37.864;2023-08-31T20:15:03;99796.13;;;19.65;62.23
75208;BME280;63795;55.684;37.864;2023-08-31T20:20:04;99798.00;;;19.59;62.41
75208;BME280;63795;55.684;37.864;2023-08-31T20:25:05;99788.00;;;19.41;62.86
75208;BME280;63795;55.684;37.864;2023-08-31T20:30:06;99790.75;;;19.32;63.19
75208;BME280;63795;55.684;37.864;2023-08-31T20:35:07;99791.38;;;19.27;63.74
75208;BME280;63795;55.684;37.864;2023-08-31T20:40:08;99791.19;;;19.22;63.39
75208;BME280;63795;55.684;37.864;2023-08-31T20:45:10;99804.88;;;19.18;64.01
75208;BME280;63795;55.684;37.864;2023-08-31T20:50:11;99798.91;;;19.12;64.06
75208;BME280;63795;55.684;37.864;2023-08-31T20:55:12;99814.56;;;19.11;64.37
75208;BME280;63795;55.684;37.864;2023-08-31T21:00:12;99795.09;;;18.94;64.92
75208;BME280;63795;55.684;37.864;2023-08-31T21:05:14;99812.91;;;18.89;65.03
75208;BME280;63795;55.684;37.864;2023-08-31T21:10:14;99806.97;;;18.83;65.49
75208;BME280;63795;55.684;37.864;2023-08-31T21:15:15;99801.13;;;18.74;65.57
75208;BME280;63795;55.684;37.864;2023-08-31T21:20:16;99813.41;;;18.75;65.61
75208;BME280;63795;55.684;37.864;2023-08-31T21:25:16;99827.44;;;18.73;66.22
75208;BME280;63795;55.684;37.864;2023-08-31T21:30:16;99820.81;;;18.63;66.43
75208;BME280;63795;55.684;37.864;2023-08-31T21:35:17;99820.69;;;18.54;66.78
75208;BME280;63795;55.684;37.864;2023-08-31T21:40:18;99823.34;;;18.48;66.83
75208;BME280;63795;55.684;37.864;2023-08-31T21:45:18;99818.50;;;18.33;67.59
75208;BME280;63795;55.684;37.864;2023-08-31T21:50:19;99816.56;;;18.30;67.85
75208;BME280;63795;55.684;37.864;2023-08-31T21:55:19;99814.28;;;18.25;68.08
75208;BME280;63795;55.684;37.864;2023-08-31T22:00:20;99812.91;;;18.17;68.26
75208;BME280;63795;55.684;37.864;2023-08-31T22:05:22;99814.63;;;18.14;68.26
75208;BME280;63795;55.684;37.864;2023-08-31T22:10:26;99812.53;;;18.02;68.34
75208;BME280;63795;55.684;37.864;2023-08-31T22:15:26;99820.81;;;18.00;68.88
75208;BME280;63795;55.684;37.864;2023-08-31T22:20:27;99822.19;;;17.96;69.10
75208;BME280;63795;55.684;37.864;2023-08-31T22:25:30;99818.72;;;17.88;69.52
75208;BME280;63795;55.684;37.864;2023-08-31T22:30:31;99829.97;;;17.82;69.95
75208;BME280;63795;55.684;37.864;2023-08-31T22:35:33;99829.28;;;17.78;69.85
75208;BME280;63795;55.684;37.864;2023-08-31T22:40:34;99820.00;;;17.74;70.36
75208;BME280;63795;55.684;37.864;2023-08-31T22:45:34;99817.22;;;17.71;70.40
75208;BME280;63795;55.684;37.864;2023-08-31T22:50:35;99812.16;;;17.62;70.28
75208;BME280;63795;55.684;37.864;2023-08-31T22:55:35;99818.38;;;17.61;70.58
75208;BME280;63795;55.684;37.864;2023-08-31T23:00:36;99813.09;;;17.59;70.76
75208;BME280;63795;55.684;37.864;2023-08-31T23:05:40;99809.19;;;17.53;71.15
75208;BME280;63795;55.684;37.864;2023-08-31T23:10:40;99812.47;;;17.52;71.25
75208;BME280;63795;55.684;37.864;2023-08-31T23:15:41;99803.63;;;17.46;71.40
75208;BME280;63795;55.684;37.864;2023-08-31T23:20:43;99821.03;;;17.39;71.80
75208;BME280;63795;55.684;37.864;2023-08-31T23:25:44;99805.75;;;17.30;71.92
75208;BME280;63795;55.684;37.864;2023-08-31T23:30:44;99809.19;;;17.25;72.38
75208;BME280;63795;55.684;37.864;2023-08-31T23:35:45;99807.88;;;17.13;72.96
75208;BME280;63795;55.684;37.864;2023-08-31T23:40:45;99799.81;;;17.08;72.87
75208;BME280;63795;55.684;37.864;2023-08-31T23:45:45;99799.81;;;17.08;72.82
75208;BME280;63795;55.684;37.864;2023-08-31T23:50:46;99810.56;;;17.04;73.35
75208;BME280;63795;55.684;37.864;2023-08-31T23:55:46;99800.94;;;16.98;73.04
